sensor_id;sensor_type;location;lat;lon;timestamp;pressure;altitude;pressure_sealevel;temperature;humidity
3178;BME280;38141;42.666;23.344;2023-04-24T00:00:37;94430.66;;;12.52;81.28
3178;BME280;38141;42.666;23.344;2023-04-24T00:03:06;94346.59;;;12.00;83.33
3178;BME280;38141;42.666;23.344;2023-04-24T00:05:33;94398.25;;;12.34;83.14
3178;BME280;38141;42.666;23.344;2023-04-24T00:08:01;94419.09;;;12.44;85.15
3178;BME280;38141;42.666;23.344;2023-04-24T00:10:28;94418.59;;;12.56;91.87
3178;BME280;38141;42.666;23.344;2023-04-24T00:12:55;94267.91;;;11.59;93.20
3178;BME280;38141;42.666;23.344;2023-04-24T00:15:22;94402.63;;;12.65;100.00
3178;BME280;38141;42.666;23.344;2023-04-24T00:17:49;94403.00;;;12.64;99.13
3178;BME280;38141;42.666;23.344;2023-04-24T00:20:16;94400.19;;;12.33;99.55
3178;BME280;38141;42.666;23.344;2023-04-24T00:22:42;94364.69;;;12.17;100.00
3178;BME280;38141;42.666;23.344;2023-04-24T00:25:11;94369.34;;;12.13;93.20
3178;BME280;38141;42.666;23.344;2023-04-24T00:27:37;94309.31;;;11.59;91.25
3178;BME280;38141;42.666;23.344;2023-04-24T00:30:05;94395.00;;;12.01;93.22
3178;BME280;38141;42.666;23.344;2023-04-24T00:32:32;94347.25;;;11.59;95.50
3178;BME280;38141;42.666;23.344;2023-04-24T00:34:59;94396.50;;;12.10;100.00
3178;BME280;38141;42.666;23.344;2023-04-24T00:37:26;94342.59;;;11.60;100.00
3178;BME280;38141;42.666;23.344;2023-04-24T00:39:54;94348.03;;;11.60;100.00
3178;BME280;38141;42.666;23.344;2023-04-24T00:42:22;94389.56;;;12.05;100.00
3178;BME280;38141;42.666;23.344;2023-04-24T00:44:49;94337.50;;;11.69;100.00
3178;BME280;38141;42.666;23.344;2023-04-24T00:47:16;94330.31;;;11.48;100.00
3178;BME280;38141;42.666;23.344;2023-04-24T00:49:45;94303.34;;;11.24;100.00
3178;BME280;38141;42.666;23.344;2023-04-24T00:52:12;94360.88;;;11.49;100.00
3178;BME280;38141;42.666;23.344;2023-04-24T00:54:43;94319.13;;;11.36;100.00
3178;BME280;38141;42.666;23.344;2023-04-24T00:57:10;94327.16;;;11.57;100.00
3178;BME280;38141;42.666;23.344;2023-04-24T00:59:39;94330.34;;;11.41;100.00
3178;BME280;38141;42.666;23.344;2023-04-24T01:02:07;94377.31;;;11.83;100.00
3178;BME280;38141;42.666;23.344;2023-04-24T01:04:34;94355.78;;;11.58;100.00
3178;BME280;38141;42.666;23.344;2023-04-24T01:07:01;94378.38;;;11.99;100.00
3178;BME280;38141;42.666;23.344;2023-04-24T01:09:28;94391.38;;;12.19;100.00
3178;BME280;38141;42.666;23.344;2023-04-24T01:11:56;94321.44;;;11.41;100.00
3178;BME280;38141;42.666;23.344;2023-04-24T01:14:24;94266.06;;;10.83;100.00
3178;BME280;38141;42.666;23.344;2023-04-24T01:16:52;94383.19;;;11.74;100.00
3178;BME280;38141;42.666;23.344;2023-04-24T01:19:19;94334.31;;;11.19;100.00
3178;BME280;38141;42.666;23.344;2023-04-24T01:21:47;94298.09;;;10.95;100.00
3178;BME280;38141;42.666;23.344;2023-04-24T01:24:19;94372.91;;;11.41;100.00
3178;BME280;38141;42.666;23.344;2023-04-24T01:26:46;94255.72;;;10.64;100.00
3178;BME280;38141;42.666;23.344;2023-04-24T01:29:12;94281.81;;;11.02;100.00
3178;BME280;38141;42.666;23.344;2023-04-24T01:31:40;94273.38;;;10.90;100.00
3178;BME280;38141;42.666;23.344;2023-04-24T01:34:07;94280.41;;;10.73;100.00
3178;BME280;38141;42.666;23.344;2023-04-24T01:36:34;94276.13;;;10.79;100.00
3178;BME280;38141;42.666;23.344;2023-04-24T01:39:01;94345.44;;;11.42;100.00
3178;BME280;38141;42.666;23.344;2023-04-24T01:41:30;94330.94;;;10.97;100.00
3178;BME280;38141;42.666;23.344;2023-04-24T01:43:58;94283.06;;;10.84;100.00
3178;BME280;38141;42.666;23.344;2023-04-24T01:46:26;94311.53;;;11.13;100.00
3178;BME280;38141;42.666;23.344;2023-04-24T01:48:53;94353.63;;;11.28;100.00
3178;BME280;38141;42.666;23.344;2023-04-24T01:51:20;94339.69;;;11.30;100.00
3178;BME280;38141;42.666;23.344;2023-04-24T01:53:47;94353.94;;;11.44;100.00
3178;BME280;38141;42.666;23.344;2023-04-24T01:56:14;94350.13;;;11.35;100.00
3178;BME280;38141;42.666;23.344;2023-04-24T01:58:43;94350.97;;;11.21;100.00
3178;BME280;38141;42.666;23.344;2023-04-24T02:01:15;94340.59;;;11.02;100.00
3178;BME280;38141;42.666;23.344;2023-04-24T02:03:42;94345.06;;;11.37;100.00
3178;BME280;38141;42.666;23.344;2023-04-24T02:06:08;94334.31;;;11.19;100.00
3178;BME280;38141;42.666;23.344;2023-04-24T02:08:35;94324.66;;;11.18;100.00
3178;BME280;38141;42.666;23.344;2023-04-24T02:11:02;94322.88;;;10.87;100.00
3178;BME280;38141;42.666;23.344;2023-04-24T02:13:35;94350.91;;;11.35;100.00
3178;BME280;38141;42.666;23.344;2023-04-24T02:16:04;94367.91;;;11.32;100.00
3178;BME280;38141;42.666;23.344;2023-04-24T02:18:30;94267.00;;;10.48;100.00
3178;BME280;38141;42.666;23.344;2023-04-24T02:20:57;94265.47;;;10.33;100.00
3178;BME280;38141;42.666;23.344;2023-04-24T02:23:24;94250.44;;;10.18;100.00
3178;BME280;38141;42.666;23.344;2023-04-24T02:25:55;94324.94;;;10.44;100.00
3178;BME280;38141;42.666;23.344;2023-04-24T02:28:22;94329.19;;;10.38;100.00
3178;BME280;38141;42.666;23.344;2023-04-24T02:30:49;94247.03;;;9.64;100.00
3178;BME280;38141;42.666;23.344;2023-04-24T02:33:18;94268.66;;;9.86;100.00
3178;BME280;38141;42.666;23.344;2023-04-24T02:35:45;94287.91;;;10.05;100.00
3178;BME280;38141;42.666;23.344;2023-04-24T02:38:12;94292.16;;;10.06;100.00
3178;BME280;38141;42.666;23.344;2023-04-24T02:40:38;94261.66;;;9.95;100.00
3178;BME280;38141;42.666;23.344;2023-04-24T02:43:05;94324.19;;;10.40;100.00
3178;BME280;38141;42.666;23.344;2023-04-24T02:45:32;94318.78;;;10.40;100.00
3178;BME280;38141;42.666;23.344;2023-04-24T02:48:00;94283.66;;;10.04;100.00
3178;BME280;38141;42.666;23.344;2023-04-24T02:50:29;94324.56;;;10.38;100.00
3178;BME280;38141;42.666;23.344;2023-04-24T02:52:56;94287.13;;;10.19;100.00
3178;BME280;38141;42.666;23.344;2023-04-24T02:55:22;94234.28;;;9.93;100.00
3178;BME280;38141;42.666;23.344;2023-04-24T02:57:50;94328.84;;;10.36;100.00
3178;BME280;38141;42.666;23.344;2023-04-24T03:00:17;94234.31;;;9.61;100.00
3178;BME280;38141;42.666;23.344;2023-04-24T03:02:44;94229.31;;;9.42;100.00
3178;BME280;38141;42.666;23.344;2023-04-24T03:05:11;94291.00;;;9.82;100.00
3178;BME280;38141;42.666;23.344;2023-04-24T03:07:39;94331.53;;;10.14;100.00
3178;BME280;38141;42.666;23.344;2023-04-24T03:10:07;94332.28;;;10.15;100.00
3178;BME280;38141;42.666;23.344;2023-04-24T03:12:34;94253.59;;;9.56;100.00
3178;BME280;38141;42.666;23.344;2023-04-24T03:15:01;94280.63;;;9.53;100.00
3178;BME280;38141;42.666;23.344;2023-04-24T03:17:28;94334.63;;;9.95;100.00
3178;BME280;38141;42.666;23.344;2023-04-24T03:19:55;94322.66;;;9.89;100.00
3178;BME280;38141;42.666;23.344;2023-04-24T03:22:22;94330.00;;;9.99;100.00
3178;BME280;38141;42.666;23.344;2023-04-24T03:24:53;94265.19;;;9.53;100.00
3178;BME280;38141;42.666;23.344;2023-04-24T03:30:41;94267.88;;;9.60;100.00
3178;BME280;38141;42.666;23.344;2023-04-24T03:39:53;94309.16;;;9.64;100.00
3178;BME280;38141;42.666;23.344;2023-04-24T03:42:20;94326.53;;;9.74;100.00
3178;BME280;38141;42.666;23.344;2023-04-24T03:44:47;94243.53;;;9.14;100.00
3178;BME280;38141;42.666;23.344;2023-04-24T03:47:13;94341.56;;;10.10;100.00
3178;BME280;38141;42.666;23.344;2023-04-24T03:49:40;94336.16;;;10.10;100.00
3178;BME280;38141;42.666;23.344;2023-04-24T03:52:07;94333.09;;;10.12;100.00
3178;BME280;38141;42.666;23.344;2023-04-24T03:54:34;94333.47;;;10.35;100.00
3178;BME280;38141;42.666;23.344;2023-04-24T03:57:02;94326.53;;;10.20;100.00
3178;BME280;38141;42.666;23.344;2023-04-24T03:59:30;94319.16;;;10.10;100.00
3178;BME280;38141;42.666;23.344;2023-04-24T04:01:57;94326.47;;;10.52;100.00
3178;BME280;38141;42.666;23.344;2023-04-24T04:04:24;94267.44;;;10.25;100.00
3178;BME280;38141;42.666;23.344;2023-04-24T04:06:50;94321.34;;;10.79;100.00
3178;BME280;38141;42.666;23.344;2023-04-24T04:09:18;94302.47;;;10.64;100.00
3178;BME280;38141;42.666;23.344;2023-04-24T04:11:49;94346.72;;;11.17;100.00
3178;BME280;38141;42.666;23.344;2023-04-24T04:14:17;94344.38;;;11.19;100.00
3178;BME280;38141;42.666;23.344;2023-04-24T04:16:45;94272.22;;;10.94;100.00
3178;BME280;38141;42.666;23.344;2023-04-24T04:19:11;94320.75;;;11.23;100.00
3178;BME280;38141;42.666;23.344;2023-04-24T04:21:38;94313.34;;;11.37;100.00
3178;BME280;38141;42.666;23.344;2023-04-24T04:24:05;94294.53;;;11.12;100.00
3178;BME280;38141;42.666;23.344;2023-04-24T04:26:32;94358.84;;;11.67;100.00
3178;BME280;38141;42.666;23.344;2023-04-24T04:29:01;94352.38;;;12.06;100.00
3178;BME280;38141;42.666;23.344;2023-04-24T04:31:31;94298.69;;;11.90;100.00
3178;BME280;38141;42.666;23.344;2023-04-24T04:33:57;94355.81;;;12.10;100.00
3178;BME280;38141;42.666;23.344;2023-04-24T04:36:24;94348.84;;;12.12;100.00
3178;BME280;38141;42.666;23.344;2023-04-24T04:38:58;94335.28;;;12.09;100.00
3178;BME280;38141;42.666;23.344;2023-04-24T04:41:25;94351.63;;;12.46;100.00
3178;BME280;38141;42.666;23.344;2023-04-24T04:43:52;94271.72;;;12.17;100.00
3178;BME280;38141;42.666;23.344;2023-04-24T04:46:19;94256.81;;;11.94;100.00
3178;BME280;38141;42.666;23.344;2023-04-24T04:48:48;94245.69;;;11.85;99.19
3178;BME280;38141;42.666;23.344;2023-04-24T04:51:15;94295.38;;;12.13;96.89
3178;BME280;38141;42.666;23.344;2023-04-24T04:53:44;94336.84;;;12.10;90.80
3178;BME280;38141;42.666;23.344;2023-04-24T04:56:11;94344.34;;;12.36;91.06
3178;BME280;38141;42.666;23.344;2023-04-24T04:58:39;94355.19;;;12.39;87.86
3178;BME280;38141;42.666;23.344;2023-04-24T05:01:08;94368.47;;;12.68;85.66
3178;BME280;38141;42.666;23.344;2023-04-24T05:03:35;94229.13;;;11.73;85.27
3178;BME280;38141;42.666;23.344;2023-04-24T05:06:04;94333.72;;;12.56;81.99
3178;BME280;38141;42.666;23.344;2023-04-24T05:08:31;94357.16;;;12.76;79.98
3178;BME280;38141;42.666;23.344;2023-04-24T05:10:59;94385.00;;;12.84;76.83
3178;BME280;38141;42.666;23.344;2023-04-24T05:13:32;94324.88;;;12.07;77.08
3178;BME280;38141;42.666;23.344;2023-04-24T05:16:00;94340.72;;;11.50;82.72
3178;BME280;38141;42.666;23.344;2023-04-24T05:18:50;94324.41;;;11.60;80.68
3178;BME280;38141;42.666;23.344;2023-04-24T05:21:19;94373.56;;;12.18;81.63
3178;BME280;38141;42.666;23.344;2023-04-24T05:23:48;94375.09;;;12.22;81.34
3178;BME280;38141;42.666;23.344;2023-04-24T05:26:16;94345.72;;;12.14;80.09
3178;BME280;38141;42.666;23.344;2023-04-24T05:28:45;94316.16;;;12.30;78.24
3178;BME280;38141;42.666;23.344;2023-04-24T05:31:12;94321.97;;;12.66;73.43
3178;BME280;38141;42.666;23.344;2023-04-24T05:33:40;94351.88;;;12.96;72.11
3178;BME280;38141;42.666;23.344;2023-04-24T05:36:11;94347.59;;;12.99;71.57
3178;BME280;38141;42.666;23.344;2023-04-24T05:38:43;94338.84;;;13.18;71.21
3178;BME280;38141;42.666;23.344;2023-04-24T05:41:12;94349.09;;;13.91;68.27
3178;BME280;38141;42.666;23.344;2023-04-24T05:43:39;94339.34;;;15.06;61.76
3178;BME280;38141;42.666;23.344;2023-04-24T05:46:06;94389.44;;;16.07;58.06
3178;BME280;38141;42.666;23.344;2023-04-24T05:48:34;94364.88;;;16.07;56.77
3178;BME280;38141;42.666;23.344;2023-04-24T05:51:02;94339.75;;;15.44;58.01
3178;BME280;38141;42.666;23.344;2023-04-24T05:53:36;94292.47;;;15.86;55.91
3178;BME280;38141;42.666;23.344;2023-04-24T05:59:10;94293.75;;;17.96;50.82
3178;BME280;38141;42.666;23.344;2023-04-24T06:01:39;94255.22;;;18.03;49.05
3178;BME280;38141;42.666;23.344;2023-04-24T06:04:07;94349.78;;;18.55;48.29
3178;BME280;38141;42.666;23.344;2023-04-24T06:06:35;94359.72;;;18.49;48.67
3178;BME280;38141;42.666;23.344;2023-04-24T06:09:08;94351.72;;;17.53;50.45
3178;BME280;38141;42.666;23.344;2023-04-24T06:11:50;94377.94;;;18.43;48.94
3178;BME280;38141;42.666;23.344;2023-04-24T06:14:23;94358.78;;;18.17;48.31
3178;BME280;38141;42.666;23.344;2023-04-24T06:16:50;94361.88;;;19.35;46.96
3178;BME280;38141;42.666;23.344;2023-04-24T06:19:17;94381.41;;;21.10;43.88
3178;BME280;38141;42.666;23.344;2023-04-24T06:21:44;94313.56;;;21.43;42.41
3178;BME280;38141;42.666;23.344;2023-04-24T06:24:14;94228.13;;;21.01;41.72
3178;BME280;38141;42.666;23.344;2023-04-24T06:26:42;94372.72;;;21.48;42.46
3178;BME280;38141;42.666;23.344;2023-04-24T06:29:09;94307.06;;;21.73;41.46
3178;BME280;38141;42.666;23.344;2023-04-24T06:31:41;94360.34;;;21.43;42.54
3178;BME280;38141;42.666;23.344;2023-04-24T06:34:08;94394.28;;;21.40;42.98
3178;BME280;38141;42.666;23.344;2023-04-24T06:36:35;94300.25;;;20.11;43.83
3178;BME280;38141;42.666;23.344;2023-04-24T06:39:02;94310.47;;;19.70;45.09
3178;BME280;38141;42.666;23.344;2023-04-24T06:41:29;94294.00;;;19.70;44.80
3178;BME280;38141;42.666;23.344;2023-04-24T06:43:55;94344.47;;;20.04;44.68
3178;BME280;38141;42.666;23.344;2023-04-24T06:46:22;94263.03;;;18.95;45.93
3178;BME280;38141;42.666;23.344;2023-04-24T06:48:53;94379.09;;;19.70;46.03
3178;BME280;38141;42.666;23.344;2023-04-24T06:51:22;94276.78;;;19.79;44.98
3178;BME280;38141;42.666;23.344;2023-04-24T06:53:49;94345.31;;;19.91;45.50
3178;BME280;38141;42.666;23.344;2023-04-24T06:56:16;94383.59;;;21.15;43.57
3178;BME280;38141;42.666;23.344;2023-04-24T06:58:43;94384.97;;;21.19;43.00
3178;BME280;38141;42.666;23.344;2023-04-24T07:01:10;94284.06;;;21.07;42.10
3178;BME280;38141;42.666;23.344;2023-04-24T07:03:38;94310.19;;;21.12;42.38
3178;BME280;38141;42.666;23.344;2023-04-24T07:06:07;94300.47;;;19.33;45.24
3178;BME280;38141;42.666;23.344;2023-04-24T07:08:34;94365.81;;;19.69;46.16
3178;BME280;38141;42.666;23.344;2023-04-24T07:11:01;94358.06;;;20.38;45.05
3178;BME280;38141;42.666;23.344;2023-04-24T07:13:28;94354.84;;;21.34;43.78
3178;BME280;38141;42.666;23.344;2023-04-24T07:15:54;94364.25;;;20.78;43.66
3178;BME280;38141;42.666;23.344;2023-04-24T07:18:21;94359.00;;;20.44;44.47
3178;BME280;38141;42.666;23.344;2023-04-24T07:20:48;94362.59;;;20.32;44.49
3178;BME280;38141;42.666;23.344;2023-04-24T07:23:19;94358.41;;;19.57;45.92
3178;BME280;38141;42.666;23.344;2023-04-24T07:25:46;94361.13;;;21.35;43.05
3178;BME280;38141;42.666;23.344;2023-04-24T07:28:13;94345.88;;;22.36;41.07
3178;BME280;38141;42.666;23.344;2023-04-24T07:30:40;94335.38;;;22.49;40.64
3178;BME280;38141;42.666;23.344;2023-04-24T07:33:07;94344.81;;;22.90;40.41
3178;BME280;38141;42.666;23.344;2023-04-24T07:35:36;94352.94;;;22.28;40.76
3178;BME280;38141;42.666;23.344;2023-04-24T07:38:03;94350.94;;;22.94;39.79
3178;BME280;38141;42.666;23.344;2023-04-24T07:40:31;94356.50;;;22.85;40.96
3178;BME280;38141;42.666;23.344;2023-04-24T07:42:59;94346.84;;;23.04;39.51
3178;BME280;38141;42.666;23.344;2023-04-24T07:45:25;94353.81;;;23.38;38.88
3178;BME280;38141;42.666;23.344;2023-04-24T07:47:53;94344.41;;;23.44;38.98
3178;BME280;38141;42.666;23.344;2023-04-24T07:50:20;94319.56;;;24.03;37.77
3178;BME280;38141;42.666;23.344;2023-04-24T07:52:47;94343.88;;;23.31;38.54
3178;BME280;38141;42.666;23.344;2023-04-24T07:55:14;94347.66;;;23.19;38.82
3178;BME280;38141;42.666;23.344;2023-04-24T07:57:42;94343.66;;;22.82;39.47
3178;BME280;38141;42.666;23.344;2023-04-24T08:00:10;94330.84;;;23.32;38.63
3178;BME280;38141;42.666;23.344;2023-04-24T08:02:37;94311.91;;;23.39;39.69
3178;BME280;38141;42.666;23.344;2023-04-24T08:05:04;94308.50;;;23.30;38.68
3178;BME280;38141;42.666;23.344;2023-04-24T08:07:31;94336.53;;;23.81;38.65
3178;BME280;38141;42.666;23.344;2023-04-24T08:09:58;94316.69;;;23.39;38.45
3178;BME280;38141;42.666;23.344;2023-04-24T08:12:25;94331.19;;;24.07;38.46
3178;BME280;38141;42.666;23.344;2023-04-24T08:15:09;94322.16;;;23.92;38.75
3178;BME280;38141;42.666;23.344;2023-04-24T08:17:36;94326.13;;;22.61;41.12
3178;BME280;38141;42.666;23.344;2023-04-24T08:20:04;94316.25;;;23.55;39.33
3178;BME280;38141;42.666;23.344;2023-04-24T08:22:32;94320.94;;;23.40;39.56
3178;BME280;38141;42.666;23.344;2023-04-24T08:24:59;94317.81;;;24.35;37.45
3178;BME280;38141;42.666;23.344;2023-04-24T08:27:27;94320.69;;;24.96;36.43
3178;BME280;38141;42.666;23.344;2023-04-24T08:29:54;94309.53;;;25.82;35.67
3178;BME280;38141;42.666;23.344;2023-04-24T08:32:22;94312.59;;;25.84;35.70
3178;BME280;38141;42.666;23.344;2023-04-24T08:34:49;94309.13;;;24.97;36.37
3178;BME280;38141;42.666;23.344;2023-04-24T08:37:18;94311.78;;;26.41;34.53
3178;BME280;38141;42.666;23.344;2023-04-24T08:39:44;94285.78;;;26.01;34.98
3178;BME280;38141;42.666;23.344;2023-04-24T08:42:12;94299.63;;;26.70;34.50
3178;BME280;38141;42.666;23.344;2023-04-24T08:44:41;94298.50;;;27.85;32.67
3178;BME280;38141;42.666;23.344;2023-04-24T08:47:08;94289.06;;;27.38;33.02
3178;BME280;38141;42.666;23.344;2023-04-24T08:49:38;94296.47;;;27.75;32.67
3178;BME280;38141;42.666;23.344;2023-04-24T08:52:05;94283.59;;;27.94;32.09
3178;BME280;38141;42.666;23.344;2023-04-24T08:54:34;94299.25;;;28.08;32.18
3178;BME280;38141;42.666;23.344;2023-04-24T08:57:02;94274.13;;;27.25;33.36
3178;BME280;38141;42.666;23.344;2023-04-24T08:59:30;94288.09;;;27.53;32.29
3178;BME280;38141;42.666;23.344;2023-04-24T09:01:58;94273.06;;;29.06;31.08
3178;BME280;38141;42.666;23.344;2023-04-24T09:04:25;94267.31;;;31.37;28.75
3178;BME280;38141;42.666;23.344;2023-04-24T09:06:55;94283.22;;;31.05;28.17
3178;BME280;38141;42.666;23.344;2023-04-24T09:09:23;94286.16;;;31.74;27.36
3178;BME280;38141;42.666;23.344;2023-04-24T09:11:51;94259.81;;;34.40;24.96
3178;BME280;38141;42.666;23.344;2023-04-24T09:14:21;94272.88;;;31.61;27.99
3178;BME280;38141;42.666;23.344;2023-04-24T09:16:50;94256.13;;;31.18;27.80
3178;BME280;38141;42.666;23.344;2023-04-24T09:19:17;94274.75;;;32.04;27.05
3178;BME280;38141;42.666;23.344;2023-04-24T09:21:46;94258.22;;;29.80;28.97
3178;BME280;38141;42.666;23.344;2023-04-24T09:24:16;94261.91;;;29.58;29.22
3178;BME280;38141;42.666;23.344;2023-04-24T09:27:00;94248.44;;;29.62;29.22
3178;BME280;38141;42.666;23.344;2023-04-24T09:29:28;94226.78;;;28.86;30.41
3178;BME280;38141;42.666;23.344;2023-04-24T09:31:55;94241.03;;;28.60;30.13
3178;BME280;38141;42.666;23.344;2023-04-24T09:34:35;94234.72;;;29.70;29.76
3178;BME280;38141;42.666;23.344;2023-04-24T09:37:02;94243.84;;;29.18;31.04
3178;BME280;38141;42.666;23.344;2023-04-24T09:39:30;94204.56;;;29.22;30.20
3178;BME280;38141;42.666;23.344;2023-04-24T09:42:04;94231.75;;;29.10;30.14
3178;BME280;38141;42.666;23.344;2023-04-24T09:44:34;94240.66;;;29.90;29.75
3178;BME280;38141;42.666;23.344;2023-04-24T09:47:01;94233.88;;;30.88;28.82
3178;BME280;38141;42.666;23.344;2023-04-24T09:49:29;94207.16;;;32.97;25.88
3178;BME280;38141;42.666;23.344;2023-04-24T09:52:03;94239.28;;;31.24;28.05
3178;BME280;38141;42.666;23.344;2023-04-24T09:54:31;94230.28;;;31.12;27.90
3178;BME280;38141;42.666;23.344;2023-04-24T09:56:58;94229.38;;;31.79;27.88
3178;BME280;38141;42.666;23.344;2023-04-24T10:02:50;94203.81;;;30.52;28.97
3178;BME280;38141;42.666;23.344;2023-04-24T10:05:33;94216.38;;;31.25;27.97
3178;BME280;38141;42.666;23.344;2023-04-24T10:08:02;94196.41;;;29.70;29.58
3178;BME280;38141;42.666;23.344;2023-04-24T10:10:33;94204.66;;;29.51;29.02
3178;BME280;38141;42.666;23.344;2023-04-24T10:13:00;94195.16;;;29.30;30.26
3178;BME280;38141;42.666;23.344;2023-04-24T10:15:28;94187.44;;;30.13;29.06
3178;BME280;38141;42.666;23.344;2023-04-24T10:17:55;94189.88;;;29.62;29.17
3178;BME280;38141;42.666;23.344;2023-04-24T10:20:25;94180.91;;;28.24;30.02
3178;BME280;38141;42.666;23.344;2023-04-24T10:22:53;94174.66;;;27.73;31.20
3178;BME280;38141;42.666;23.344;2023-04-24T10:25:21;94182.34;;;26.86;31.96
3178;BME280;38141;42.666;23.344;2023-04-24T10:27:51;94169.56;;;27.16;31.14
3178;BME280;38141;42.666;23.344;2023-04-24T10:30:20;94175.06;;;28.39;30.68
3178;BME280;38141;42.666;23.344;2023-04-24T10:32:47;94174.38;;;28.16;31.09
3178;BME280;38141;42.666;23.344;2023-04-24T10:35:14;94155.19;;;27.51;31.55
3178;BME280;38141;42.666;23.344;2023-04-24T10:37:44;94164.78;;;27.39;32.38
3178;BME280;38141;42.666;23.344;2023-04-24T10:40:17;94163.97;;;28.22;31.83
3178;BME280;38141;42.666;23.344;2023-04-24T10:42:47;94157.16;;;28.01;30.72
3178;BME280;38141;42.666;23.344;2023-04-24T10:45:19;94153.91;;;27.30;32.33
3178;BME280;38141;42.666;23.344;2023-04-24T10:47:58;94135.47;;;27.38;31.92
3178;BME280;38141;42.666;23.344;2023-04-24T10:50:26;94153.59;;;27.00;31.98
3178;BME280;38141;42.666;23.344;2023-04-24T10:53:05;94122.09;;;27.25;31.66
3178;BME280;38141;42.666;23.344;2023-04-24T10:55:43;94133.69;;;27.07;32.06
3178;BME280;38141;42.666;23.344;2023-04-24T10:58:10;94134.94;;;27.12;31.75
3178;BME280;38141;42.666;23.344;2023-04-24T11:00:40;94117.47;;;26.83;31.87
3178;BME280;38141;42.666;23.344;2023-04-24T11:03:24;94120.22;;;26.78;32.47
3178;BME280;38141;42.666;23.344;2023-04-24T11:06:02;94121.25;;;26.86;31.73
3178;BME280;38141;42.666;23.344;2023-04-24T11:08:31;94121.69;;;26.08;32.09
3178;BME280;38141;42.666;23.344;2023-04-24T11:11:02;94126.28;;;24.60;33.14
3178;BME280;38141;42.666;23.344;2023-04-24T11:14:04;94110.38;;;24.81;33.81
3178;BME280;38141;42.666;23.344;2023-04-24T11:16:34;94092.69;;;24.93;33.43
3178;BME280;38141;42.666;23.344;2023-04-24T11:19:05;94110.75;;;24.43;34.24
3178;BME280;38141;42.666;23.344;2023-04-24T11:21:39;94118.63;;;24.50;34.76
3178;BME280;38141;42.666;23.344;2023-04-24T11:24:26;94131.06;;;24.86;34.71
3178;BME280;38141;42.666;23.344;2023-04-24T11:26:55;94146.06;;;22.99;38.03
3178;BME280;38141;42.666;23.344;2023-04-24T11:29:38;94128.56;;;21.96;39.74
3178;BME280;38141;42.666;23.344;2023-04-24T11:32:19;94162.69;;;21.65;40.96
3178;BME280;38141;42.666;23.344;2023-04-24T11:34:47;94167.88;;;21.21;44.40
3178;BME280;38141;42.666;23.344;2023-04-24T11:37:15;94168.25;;;20.87;48.26
3178;BME280;38141;42.666;23.344;2023-04-24T11:39:42;94153.56;;;20.99;46.04
3178;BME280;38141;42.666;23.344;2023-04-24T11:42:15;94173.22;;;21.34;46.24
3178;BME280;38141;42.666;23.344;2023-04-24T11:44:42;94149.81;;;21.62;41.95
3178;BME280;38141;42.666;23.344;2023-04-24T11:47:09;94159.81;;;21.93;41.32
3178;BME280;38141;42.666;23.344;2023-04-24T11:49:45;94151.63;;;21.42;41.91
3178;BME280;38141;42.666;23.344;2023-04-24T11:52:15;94159.44;;;21.34;43.11
3178;BME280;38141;42.666;23.344;2023-04-24T11:54:48;94152.22;;;20.85;45.28
3178;BME280;38141;42.666;23.344;2023-04-24T11:57:26;94099.31;;;20.49;45.76
3178;BME280;38141;42.666;23.344;2023-04-24T11:59:58;94137.03;;;20.48;45.21
3178;BME280;38141;42.666;23.344;2023-04-24T12:02:26;94147.28;;;20.99;44.74
3178;BME280;38141;42.666;23.344;2023-04-24T12:04:55;94096.84;;;20.51;44.77
3178;BME280;38141;42.666;23.344;2023-04-24T12:07:22;94140.34;;;20.70;45.15
3178;BME280;38141;42.666;23.344;2023-04-24T12:09:55;94140.75;;;20.87;44.07
3178;BME280;38141;42.666;23.344;2023-04-24T12:12:25;94128.41;;;21.34;43.35
3178;BME280;38141;42.666;23.344;2023-04-24T12:14:54;94115.22;;;21.70;43.10
3178;BME280;38141;42.666;23.344;2023-04-24T12:17:26;94119.25;;;21.60;44.35
3178;BME280;38141;42.666;23.344;2023-04-24T12:19:58;94120.63;;;21.89;43.15
3178;BME280;38141;42.666;23.344;2023-04-24T12:22:26;94124.06;;;21.74;42.56
3178;BME280;38141;42.666;23.344;2023-04-24T12:25:00;94110.38;;;21.33;42.24
3178;BME280;38141;42.666;23.344;2023-04-24T12:27:31;94119.34;;;21.42;42.58
3178;BME280;38141;42.666;23.344;2023-04-24T12:30:00;94100.56;;;20.90;43.52
3178;BME280;38141;42.666;23.344;2023-04-24T12:36:11;94099.13;;;21.03;43.53
3178;BME280;38141;42.666;23.344;2023-04-24T12:38:39;94094.31;;;20.89;44.30
3178;BME280;38141;42.666;23.344;2023-04-24T12:41:11;94094.31;;;20.89;44.28
3178;BME280;38141;42.666;23.344;2023-04-24T12:43:38;94080.81;;;21.00;44.13
3178;BME280;38141;42.666;23.344;2023-04-24T12:46:05;94086.28;;;21.09;44.35
3178;BME280;38141;42.666;23.344;2023-04-24T12:48:34;94071.63;;;20.70;44.53
3178;BME280;38141;42.666;23.344;2023-04-24T12:51:01;94063.44;;;20.85;44.16
3178;BME280;38141;42.666;23.344;2023-04-24T12:53:29;94004.16;;;20.60;43.58
3178;BME280;38141;42.666;23.344;2023-04-24T12:55:56;94060.06;;;20.48;44.27
3178;BME280;38141;42.666;23.344;2023-04-24T12:58:23;93991.31;;;19.51;45.24
3178;BME280;38141;42.666;23.344;2023-04-24T13:00:50;94034.63;;;19.84;45.98
3178;BME280;38141;42.666;23.344;2023-04-24T13:03:18;94026.38;;;20.11;45.21
3178;BME280;38141;42.666;23.344;2023-04-24T13:05:45;93964.84;;;19.08;46.67
3178;BME280;38141;42.666;23.344;2023-04-24T13:08:11;93956.06;;;19.41;46.40
3178;BME280;38141;42.666;23.344;2023-04-24T13:10:40;93988.56;;;19.61;46.21
3178;BME280;38141;42.666;23.344;2023-04-24T13:13:07;94014.31;;;19.81;45.68
3178;BME280;38141;42.666;23.344;2023-04-24T13:15:34;94019.19;;;20.05;45.33
3178;BME280;38141;42.666;23.344;2023-04-24T13:18:01;93991.47;;;19.84;45.55
3178;BME280;38141;42.666;23.344;2023-04-24T13:20:28;93981.84;;;19.98;45.64
3178;BME280;38141;42.666;23.344;2023-04-24T13:22:55;94011.50;;;20.45;45.52
3178;BME280;38141;42.666;23.344;2023-04-24T13:25:22;94002.91;;;20.61;45.85